Estación Meteorológica Peña el Pijo (Robertgarden) [ 09/23/17 05:47:26 CEST ]

Fecha Hora Presion(HPa) Temp (°C) Humedad % Rocio (°C) Viento ( m/s) Direccion Lluvia 1Hora(mm) Lluvia 24H(mm) LLuvia Total(mm)
2017-Jul-28 01:01:46 1012.000 19.4 54 9.8         1437.96
2017-Jul-28 02:01:57 1012.200 19.3 52 9.2         1437.96
2017-Jul-28 03:01:41 1011.800 18.9 50 8.3         1437.96
2017-Jul-28 04:01:35 1011.900 18.3 50 7.7         1437.96
2017-Jul-28 05:01:45 1011.700 17.3 50 6.8         1437.96
2017-Jul-28 06:01:15 1011.900 16.6 52 6.7         1437.96
2017-Jul-28 07:02:00 1012.300 16.3 52 6.4         1437.96
2017-Jul-28 08:01:39 1012.200 17.1 53 7.4         1437.96
2017-Jul-28 09:01:49 1012.400 23.2 46 10.9         1437.96
2017-Jul-28 10:01:43 1012.300 30.8 38 14.8         1437.96
2017-Jul-28 11:01:39 1012.100 34.8 27 12.9         1437.96
2017-Jul-28 12:01:58 1011.900 37.2 22 11.8         1437.96
2017-Jul-28 13:01:52 1011.600 39.7 19 11.5         1437.96
2017-Jul-28 14:01:54 1011.700 37.4 18 8.7 0.1 SSW     1437.96
2017-Jul-28 15:01:37 1011.100 38.6 18 9.7         1437.96
2017-Jul-28 16:01:44 1010.800 40.9 16 9.4         1437.96
2017-Jul-28 17:01:51 1010.900 36.3 21 10.4 1.7 S     1437.96
2017-Jul-28 18:01:59 1010.600 37.0 22 11.6         1437.96
2017-Jul-28 19:01:40 1010.600 35.3 24 11.4 0.7 SSE     1437.96
2017-Jul-28 20:02:00 1011.200 32.6 27 11.0         1437.96
2017-Jul-28 21:01:47 1011.400 29.2 33 11.2         1437.96
2017-Jul-28 22:01:46 1012.300 24.8 40 10.3         1437.96
2017-Jul-28 23:01:39 1012.900 21.1 49 10.0         1437.96

Temperatura Máxima:40°    Temperatura Mínima:16°
Presión Máxima:1012.900 Hpa    Presión Mínima:1010.600 Hpa


Volver